createdAt,value
2019-05-01T00:04:19.937Z,99432.27
2019-05-01T00:09:24.515Z,99438.63
2019-05-01T00:14:29.101Z,99432.67
2019-05-01T00:19:33.900Z,99427.92
2019-05-01T00:24:38.515Z,99418.73
2019-05-01T00:29:43.111Z,99407.03
2019-05-01T00:34:48.616Z,99404.41
2019-05-01T00:39:54.095Z,99403.65
2019-05-01T00:44:58.777Z,99408.95
2019-05-01T00:50:04.675Z,99408.30
2019-05-01T00:55:15.401Z,99404.33
2019-05-01T01:00:42.900Z,99401.80
2019-05-01T01:05:40.147Z,99405.91
2019-05-01T01:10:44.611Z,99405.63
2019-05-01T01:15:49.052Z,99401.91
2019-05-01T01:20:53.850Z,99392.36
2019-05-01T01:25:59.785Z,99401.05
2019-05-01T01:31:04.542Z,99398.30
2019-05-01T01:36:08.994Z,99403.80
2019-05-01T01:41:13.692Z,99404.97
2019-05-01T01:46:22.710Z,99396.56
2019-05-01T01:51:29.105Z,99399.62
2019-05-01T01:56:33.681Z,99402.61
2019-05-01T02:01:56.127Z,99408.95
2019-05-01T02:07:00.850Z,99409.42
2019-05-01T02:12:05.744Z,99400.95
2019-05-01T02:17:10.445Z,99391.95
2019-05-01T02:22:16.956Z,99392.36
2019-05-01T02:27:24.021Z,99382.52
2019-05-01T02:32:29.561Z,99379.97
2019-05-01T02:37:35.148Z,99384.45
2019-05-01T02:42:42.562Z,99389.19
2019-05-01T02:47:48.145Z,99382.63
2019-05-01T02:52:52.810Z,99377.08
2019-05-01T02:57:58.091Z,99363.61
2019-05-01T03:03:04.153Z,99374.19
2019-05-01T03:08:09.536Z,99375.91
2019-05-01T03:13:14.126Z,99382.63
2019-05-01T03:18:21.154Z,99381.59
2019-05-01T03:23:27.356Z,99383.30
2019-05-01T03:28:32.519Z,99375.53
2019-05-01T03:33:37.108Z,99375.66
2019-05-01T03:38:42.069Z,99370.21
2019-05-01T03:43:47.202Z,99374.09
2019-05-01T03:48:52.222Z,99381.81
2019-05-01T03:53:57.018Z,99388.55
2019-05-01T03:59:01.731Z,99384.01
2019-05-01T04:04:10.056Z,99373.59
2019-05-01T04:09:14.916Z,99372.92
2019-05-01T04:14:19.862Z,99367.58
2019-05-01T04:19:24.856Z,99370.81
2019-05-01T04:24:29.425Z,99367.78
2019-05-01T04:29:36.142Z,99369.89
2019-05-01T04:34:42.568Z,99376.23
2019-05-01T04:39:47.847Z,99365.17
2019-05-01T04:44:52.622Z,99366.14
2019-05-01T04:49:57.574Z,99371.80
2019-05-01T04:55:04.307Z,99372.53
2019-05-01T05:00:09.687Z,99371.78
2019-05-01T05:05:15.139Z,99370.49
2019-05-01T05:10:19.779Z,99374.66
2019-05-01T05:15:35.107Z,99380.12
2019-05-01T05:20:40.137Z,99380.19
2019-05-01T05:25:45.179Z,99380.12
2019-05-01T05:30:51.739Z,99380.98
2019-05-01T05:35:58.062Z,99381.11
2019-05-01T05:41:04.026Z,99380.06
2019-05-01T05:46:09.010Z,99382.11
2019-05-01T05:51:22.497Z,99389.99
2019-05-01T05:56:35.822Z,99382.35
2019-05-01T06:01:50.271Z,99382.88
2019-05-01T06:06:58.811Z,99382.31
2019-05-01T06:12:08.977Z,99373.44
2019-05-01T06:17:19.399Z,99369.60
2019-05-01T06:22:33.521Z,99371.33
2019-05-01T06:27:38.755Z,99371.56
2019-05-01T06:32:44.345Z,99368.03
2019-05-01T06:38:02.323Z,99369.67
2019-05-01T06:43:10.727Z,99367.23
2019-05-01T06:48:33.441Z,99364.02
2019-05-01T06:53:39.989Z,99371.20
2019-05-01T07:06:41.395Z,99352.49
2019-05-01T07:16:47.406Z,99342.91
2019-05-01T07:26:52.025Z,99350.15
2019-05-01T07:36:56.751Z,99351.55
2019-05-01T07:47:05.974Z,99347.81
2019-05-01T07:57:10.601Z,99350.23
2019-05-01T08:07:16.366Z,99342.70
2019-05-01T08:17:22.473Z,99342.97
2019-05-01T08:27:34.676Z,99351.23
2019-05-01T08:37:40.884Z,99335.55
2019-05-01T08:47:56.742Z,99326.30
2019-05-01T08:58:02.320Z,99330.75
2019-05-01T09:08:07.097Z,99315.98
2019-05-01T09:18:11.704Z,99311.13
2019-05-01T09:28:23.842Z,99318.52
2019-05-01T09:38:28.742Z,99305.52
2019-05-01T09:48:33.469Z,99296.06
2019-05-01T09:58:38.090Z,99287.70
2019-05-01T10:08:42.682Z,99285.12
2019-05-01T10:18:47.282Z,99280.03
2019-05-01T10:29:09.971Z,99282.82
2019-05-01T10:39:16.084Z,99286.88
2019-05-01T10:49:21.008Z,99254.53
2019-05-01T10:59:25.563Z,99256.80
2019-05-01T11:09:30.100Z,99241.36
2019-05-01T11:19:34.599Z,99245.91
2019-05-01T11:29:39.038Z,99236.27
2019-05-01T11:39:48.126Z,99221.95
2019-05-01T11:49:53.887Z,99195.63
2019-05-01T11:59:58.347Z,99189.23
2019-05-01T12:10:03.263Z,99171.09
2019-05-01T12:20:09.254Z,99173.62
2019-05-01T12:30:16.907Z,99163.19
2019-05-01T12:40:21.725Z,99152.54
2019-05-01T12:50:26.369Z,99145.28
2019-05-01T13:00:43.032Z,99141.70
2019-05-01T13:10:49.090Z,99132.59
2019-05-01T13:20:53.603Z,99122.53
2019-05-01T13:31:16.273Z,99109.02
2019-05-01T13:41:20.781Z,99089.56
2019-05-01T13:51:25.311Z,99080.16
2019-05-01T14:01:29.750Z,99077.77
2019-05-01T14:11:34.275Z,99085.42
2019-05-01T14:21:40.404Z,99086.41
2019-05-01T14:31:44.927Z,99090.94
2019-05-01T14:41:49.511Z,99090.80
2019-05-01T14:51:54.022Z,99063.42
2019-05-01T15:01:58.573Z,99056.19
2019-05-01T15:34:04.400Z,99071.31
2019-05-01T15:44:22.568Z,99045.05
2019-05-01T15:54:27.116Z,99023.02
2019-05-01T16:04:31.565Z,99015.72
2019-05-01T16:14:36.581Z,99026.73
2019-05-01T16:24:41.448Z,99026.95
2019-05-01T16:34:46.407Z,99003.60
2019-05-01T16:44:50.876Z,98988.94
2019-05-01T16:54:59.509Z,98986.54
2019-05-01T17:05:06.258Z,98987.95
2019-05-01T17:15:12.378Z,98982.28
2019-05-01T17:25:16.905Z,98981.36
2019-05-01T17:35:21.871Z,98984.92
2019-05-01T17:45:29.940Z,98985.46
2019-05-01T17:55:32.736Z,98990.75
2019-05-01T18:05:45.100Z,98996.27
2019-05-01T18:15:49.608Z,99000.45
2019-05-01T18:26:13.303Z,99001.56
2019-05-01T18:36:19.896Z,98998.71
2019-05-01T18:46:26.282Z,99021.47
2019-05-01T18:56:30.877Z,99016.16
2019-05-01T19:06:41.383Z,99019.20
2019-05-01T19:16:45.259Z,99015.05
2019-05-01T19:26:48.057Z,99017.92
2019-05-01T19:36:52.553Z,99013.84
2019-05-01T19:46:57.103Z,99005.48
2019-05-01T19:57:02.197Z,99001.02
2019-05-01T20:07:10.661Z,99007.38
2019-05-01T20:17:15.478Z,98995.70
2019-05-01T20:27:19.982Z,98988.15
2019-05-01T20:37:24.455Z,98990.45
2019-05-01T20:48:13.740Z,98992.22
2019-05-01T20:57:39.742Z,98985.94
2019-05-01T21:07:52.064Z,98986.36
2019-05-01T21:17:54.735Z,98986.80
2019-05-01T21:27:59.268Z,98995.17
2019-05-01T21:38:03.785Z,98987.62
2019-05-01T21:48:08.355Z,98983.78
2019-05-01T21:58:15.178Z,98983.78
2019-05-01T22:08:19.373Z,98989.67
2019-05-01T22:18:28.510Z,98983.44
2019-05-01T22:28:40.470Z,98985.23
2019-05-01T22:38:46.649Z,98990.44
2019-05-01T22:48:51.314Z,98981.92
2019-05-01T22:58:55.889Z,98974.72
2019-05-01T23:09:01.735Z,98969.95
2019-05-01T23:19:08.093Z,98972.98
2019-05-01T23:29:12.664Z,98959.52
2019-05-01T23:39:17.331Z,98955.27
2019-05-01T23:49:21.838Z,98946.20
2019-05-01T23:59:26.363Z,98940.83
